createdAt,value
2019-02-23T00:01:15.425Z,5.70
2019-02-23T00:03:56.429Z,5.70
2019-02-23T00:06:37.311Z,5.60
2019-02-23T00:09:18.119Z,5.60
2019-02-23T00:11:58.755Z,5.60
2019-02-23T00:14:39.448Z,5.60
2019-02-23T00:17:20.190Z,5.60
2019-02-23T00:20:00.956Z,5.50
2019-02-23T00:22:41.483Z,5.50
2019-02-23T00:25:21.999Z,5.50
2019-02-23T00:28:02.880Z,5.40
2019-02-23T00:30:43.492Z,5.40
2019-02-23T00:33:24.481Z,5.40
2019-02-23T00:36:05.377Z,5.30
2019-02-23T00:38:45.892Z,5.30
2019-02-23T00:41:26.532Z,5.30
2019-02-23T00:44:07.024Z,5.30
2019-02-23T00:46:47.663Z,5.30
2019-02-23T00:49:35.775Z,5.30
2019-02-23T00:52:10.464Z,5.40
2019-02-23T00:54:51.332Z,5.40
2019-02-23T00:57:31.826Z,5.40
2019-02-23T01:00:12.339Z,5.30
2019-02-23T01:02:53.259Z,5.30
2019-02-23T01:05:33.877Z,5.30
2019-02-23T01:08:14.791Z,5.30
2019-02-23T01:10:58.380Z,5.20
2019-02-23T01:13:38.337Z,5.20
2019-02-23T01:16:19.359Z,5.20
2019-02-23T01:18:59.736Z,5.10
2019-02-23T01:21:40.367Z,5.10
2019-02-23T01:24:21.064Z,5.00
2019-02-23T01:27:01.868Z,5.00
2019-02-23T01:29:42.791Z,4.90
2019-02-23T01:32:23.622Z,4.90
2019-02-23T01:35:04.099Z,4.90
2019-02-23T01:37:44.738Z,4.90
2019-02-23T01:40:25.668Z,4.90
2019-02-23T01:43:06.276Z,4.90
2019-02-23T01:45:47.260Z,5.00
2019-02-23T01:48:27.495Z,5.00
2019-02-23T01:51:08.468Z,5.10
2019-02-23T01:53:49.149Z,5.20
2019-02-23T01:56:30.117Z,5.30
2019-02-23T01:59:10.623Z,5.30
2019-02-23T02:01:51.413Z,5.40
2019-02-23T02:04:31.850Z,5.50
2019-02-23T02:07:12.640Z,5.60
2019-02-23T02:09:53.035Z,5.60
2019-02-23T02:12:33.419Z,5.70
2019-02-23T02:15:14.332Z,5.70
2019-02-23T02:17:54.968Z,5.80
2019-02-23T02:20:35.531Z,5.80
2019-02-23T02:23:16.489Z,5.80
2019-02-23T02:25:57.072Z,5.90
2019-02-23T02:28:37.987Z,5.90
2019-02-23T02:31:18.497Z,5.90
2019-02-23T02:33:59.167Z,6.00
2019-02-23T02:36:39.586Z,6.00
2019-02-23T02:39:20.519Z,6.00
2019-02-23T02:42:01.196Z,6.00
2019-02-23T02:44:42.232Z,6.00
2019-02-23T02:47:22.669Z,5.90
2019-02-23T02:50:03.115Z,5.80
2019-02-23T02:52:43.663Z,5.70
2019-02-23T02:55:27.417Z,5.70
2019-02-23T02:58:07.803Z,5.60
2019-02-23T03:00:48.599Z,5.50
2019-02-23T03:03:29.128Z,5.40
2019-02-23T03:06:09.689Z,5.20
2019-02-23T03:08:50.493Z,5.10
2019-02-23T03:11:31.024Z,5.00
2019-02-23T03:14:11.719Z,4.90
2019-02-23T03:16:52.644Z,4.70
2019-02-23T03:19:33.143Z,4.60
2019-02-23T03:22:14.181Z,4.60
2019-02-23T03:24:54.880Z,4.60
2019-02-23T03:27:35.273Z,4.50
2019-02-23T03:30:15.745Z,4.50
2019-02-23T03:32:56.533Z,4.40
2019-02-23T03:35:36.867Z,4.30
2019-02-23T03:38:17.724Z,4.30
2019-02-23T03:40:58.529Z,4.30
2019-02-23T03:43:39.415Z,4.20
2019-02-23T03:46:19.644Z,4.20
2019-02-23T03:49:00.094Z,4.20
2019-02-23T03:51:40.852Z,4.10
2019-02-23T03:54:21.351Z,4.10
2019-02-23T03:57:01.755Z,4.00
2019-02-23T03:59:42.660Z,3.90
2019-02-23T04:02:23.458Z,3.90
2019-02-23T04:05:03.971Z,3.90
2019-02-23T04:07:44.727Z,3.90
2019-02-23T04:10:24.920Z,3.80
2019-02-23T04:13:05.585Z,3.80
2019-02-23T04:15:46.307Z,3.80
2019-02-23T04:18:26.815Z,3.80
2019-02-23T04:21:07.373Z,3.80
2019-02-23T04:23:48.156Z,3.80
2019-02-23T04:26:28.993Z,3.80
2019-02-23T04:29:09.819Z,3.80
2019-02-23T04:31:50.345Z,3.80
2019-02-23T04:34:31.088Z,3.80
2019-02-23T04:37:11.893Z,3.80
2019-02-23T04:39:53.007Z,3.70
2019-02-23T04:42:33.523Z,3.60
2019-02-23T04:45:12.418Z,3.60
2019-02-23T04:48:00.144Z,3.50
2019-02-23T04:50:48.193Z,3.50
2019-02-23T04:53:36.252Z,3.50
2019-02-23T04:56:23.982Z,3.50
2019-02-23T04:59:11.695Z,3.50
2019-02-23T05:01:59.399Z,3.50
2019-02-23T05:04:47.123Z,3.40
2019-02-23T05:07:34.875Z,3.40
2019-02-23T05:10:22.837Z,3.30
2019-02-23T05:13:10.557Z,3.30
2019-02-23T05:15:58.536Z,3.20
2019-02-23T05:18:46.270Z,3.20
2019-02-23T05:21:34.237Z,3.10
2019-02-23T05:24:22.289Z,3.10
2019-02-23T05:27:10.007Z,3.00
2019-02-23T05:29:57.735Z,2.90
2019-02-23T05:32:45.440Z,2.90
2019-02-23T05:35:33.488Z,2.90
2019-02-23T05:38:21.217Z,2.80
2019-02-23T05:41:09.186Z,2.80
2019-02-23T05:43:56.912Z,2.70
2019-02-23T05:46:44.886Z,2.70
2019-02-23T05:49:32.604Z,2.70
2019-02-23T05:52:20.584Z,2.60
2019-02-23T05:55:00.998Z,2.50
2019-02-23T05:57:41.471Z,2.50
2019-02-23T06:00:22.124Z,2.50
2019-02-23T06:03:02.727Z,2.40
2019-02-23T06:05:43.875Z,2.30
2019-02-23T06:08:24.390Z,2.30
2019-02-23T06:11:05.424Z,2.30
2019-02-23T06:13:46.015Z,2.30
2019-02-23T06:16:26.460Z,2.30
2019-02-23T06:19:07.177Z,2.30
2019-02-23T06:21:53.524Z,2.30
2019-02-23T06:24:30.603Z,2.30
2019-02-23T06:27:11.484Z,2.30
2019-02-23T06:29:52.369Z,2.30
2019-02-23T06:32:33.241Z,2.30
2019-02-23T06:35:14.082Z,2.40
2019-02-23T06:37:54.553Z,2.40
2019-02-23T06:40:35.148Z,2.50
2019-02-23T06:43:15.943Z,2.50
2019-02-23T06:45:56.664Z,2.60
2019-02-23T06:48:37.347Z,2.70
2019-02-23T06:51:17.839Z,3.00
2019-02-23T06:53:58.355Z,3.10
2019-02-23T06:56:39.088Z,3.30
2019-02-23T06:59:19.642Z,3.50
2019-02-23T07:02:00.082Z,3.60
2019-02-23T07:04:41.078Z,3.80
2019-02-23T07:07:22.083Z,4.00
2019-02-23T07:10:02.578Z,4.20
2019-02-23T07:12:43.312Z,4.30
2019-02-23T07:15:24.148Z,4.40
2019-02-23T07:18:04.743Z,4.40
2019-02-23T07:20:45.185Z,4.40
2019-02-23T07:23:25.932Z,4.50
2019-02-23T07:26:06.684Z,4.60
2019-02-23T07:28:47.427Z,4.70
2019-02-23T07:31:28.448Z,4.90
2019-02-23T07:34:09.236Z,5.10
2019-02-23T07:36:49.607Z,5.20
2019-02-23T07:39:30.228Z,5.20
2019-02-23T07:42:10.827Z,5.30
2019-02-23T07:44:51.840Z,5.30
2019-02-23T07:47:32.303Z,5.40
2019-02-23T07:50:13.071Z,5.50
2019-02-23T07:52:53.888Z,5.50
2019-02-23T07:55:34.590Z,5.70
2019-02-23T07:58:03.281Z,6.00
2019-02-23T08:00:50.995Z,6.10
2019-02-23T08:03:39.084Z,6.50
2019-02-23T08:06:27.038Z,6.80
2019-02-23T08:09:15.086Z,7.20
2019-02-23T08:12:02.805Z,7.50
2019-02-23T08:14:50.757Z,7.90
2019-02-23T08:17:38.479Z,8.30
2019-02-23T08:20:26.199Z,8.90
2019-02-23T08:23:14.230Z,9.30
2019-02-23T08:26:01.970Z,9.50
2019-02-23T08:28:49.671Z,9.60
2019-02-23T08:31:37.403Z,9.60
2019-02-23T08:34:25.428Z,9.40
2019-02-23T08:37:13.143Z,9.10
2019-02-23T08:40:00.867Z,9.80
2019-02-23T08:42:48.593Z,10.00
2019-02-23T08:45:36.319Z,10.40
2019-02-23T08:48:24.381Z,10.50
2019-02-23T08:51:12.115Z,11.40
2019-02-23T08:54:00.172Z,11.50
2019-02-23T08:56:40.388Z,11.80
2019-02-23T08:59:21.363Z,11.60
2019-02-23T09:02:01.971Z,11.50
2019-02-23T09:04:42.665Z,12.10
2019-02-23T09:07:23.100Z,12.70
2019-02-23T09:10:03.623Z,14.00
2019-02-23T09:12:44.552Z,15.00
2019-02-23T09:15:24.984Z,16.40
2019-02-23T09:18:06.142Z,17.20
2019-02-23T09:20:46.899Z,18.10
2019-02-23T09:23:27.544Z,18.10
2019-02-23T09:26:08.843Z,18.60
2019-02-23T09:28:49.659Z,19.50
2019-02-23T09:31:30.424Z,19.10
2019-02-23T09:34:11.171Z,18.10
2019-02-23T09:36:51.500Z,19.20
2019-02-23T09:39:31.954Z,19.90
2019-02-23T09:42:12.580Z,19.70
2019-02-23T09:44:53.107Z,19.30
2019-02-23T09:47:33.444Z,19.50
2019-02-23T09:50:13.820Z,20.00
2019-02-23T09:52:54.505Z,18.90
2019-02-23T09:55:35.388Z,19.60
2019-02-23T09:58:16.016Z,20.60
2019-02-23T10:00:56.211Z,20.10
2019-02-23T10:03:36.903Z,19.00
2019-02-23T10:06:17.372Z,18.50
2019-02-23T10:08:57.975Z,19.80
2019-02-23T10:11:38.457Z,21.30
2019-02-23T10:14:19.772Z,22.80
2019-02-23T10:17:00.448Z,23.20
2019-02-23T10:19:40.623Z,23.30
2019-02-23T10:22:21.222Z,24.20
2019-02-23T10:25:02.045Z,24.10
2019-02-23T10:27:43.269Z,22.30
2019-02-23T10:33:07.701Z,20.20
2019-02-23T10:35:48.608Z,20.80
2019-02-23T10:38:29.148Z,21.70
2019-02-23T10:41:10.045Z,21.40
2019-02-23T10:43:50.868Z,21.80
2019-02-23T10:46:31.589Z,22.70
2019-02-23T10:49:12.331Z,21.80
2019-02-23T10:51:52.871Z,22.60
2019-02-23T10:54:33.639Z,23.80
2019-02-23T10:57:13.991Z,24.60
2019-02-23T10:59:54.855Z,24.50
2019-02-23T11:02:35.427Z,23.50
2019-02-23T11:05:16.773Z,22.80
2019-02-23T11:07:57.303Z,22.50
2019-02-23T11:10:37.680Z,23.20
2019-02-23T11:13:18.461Z,23.30
2019-02-23T11:15:59.265Z,24.60
2019-02-23T11:18:39.976Z,26.60
2019-02-23T11:21:20.683Z,27.80
2019-02-23T11:24:01.988Z,27.70
2019-02-23T11:26:42.527Z,25.80
2019-02-23T11:29:23.351Z,24.20
2019-02-23T11:32:04.065Z,24.30
2019-02-23T11:34:44.718Z,25.00
2019-02-23T11:37:25.247Z,24.50
2019-02-23T11:40:05.971Z,23.80
2019-02-23T11:42:46.656Z,23.20
2019-02-23T11:45:27.100Z,23.90
2019-02-23T11:48:08.020Z,24.00
2019-02-23T11:50:48.695Z,24.40
2019-02-23T11:53:29.411Z,24.30
2019-02-23T11:56:10.055Z,24.50
2019-02-23T11:58:52.203Z,23.40
2019-02-23T12:01:33.167Z,22.00
2019-02-23T12:04:13.584Z,22.10
2019-02-23T12:06:54.247Z,22.80
2019-02-23T12:09:34.673Z,23.70
2019-02-23T12:12:15.173Z,24.90
2019-02-23T12:14:56.044Z,23.10
2019-02-23T12:20:21.751Z,21.50
2019-02-23T12:23:02.685Z,22.60
2019-02-23T12:25:45.405Z,22.00
2019-02-23T12:28:26.099Z,21.80
2019-02-23T12:31:06.799Z,21.90
2019-02-23T12:33:47.355Z,22.70
2019-02-23T12:36:27.953Z,23.60
2019-02-23T12:39:08.943Z,23.10
2019-02-23T12:41:49.923Z,21.30
2019-02-23T12:44:30.590Z,20.60
2019-02-23T12:47:11.241Z,20.50
2019-02-23T12:49:51.904Z,20.60
2019-02-23T12:52:32.495Z,21.40
2019-02-23T12:55:13.276Z,22.50
2019-02-23T12:57:53.908Z,22.60
2019-02-23T13:00:35.047Z,22.50
2019-02-23T13:03:15.790Z,22.70
2019-02-23T13:05:56.159Z,21.70
2019-02-23T13:08:36.988Z,21.30
2019-02-23T13:11:17.741Z,21.30
2019-02-23T13:13:58.540Z,21.20
2019-02-23T13:16:39.372Z,20.60
2019-02-23T13:19:20.242Z,19.80
2019-02-23T13:22:01.265Z,20.10
2019-02-23T13:24:41.746Z,20.50
2019-02-23T13:27:22.513Z,21.50
2019-02-23T13:30:03.025Z,21.70
2019-02-23T13:32:43.771Z,21.70
2019-02-23T13:35:24.667Z,20.90
2019-02-23T13:38:05.327Z,20.40
2019-02-23T13:40:46.123Z,19.90
2019-02-23T13:43:26.919Z,19.60
2019-02-23T13:46:07.356Z,19.60
2019-02-23T13:48:48.488Z,18.90
2019-02-23T13:51:29.124Z,18.50
2019-02-23T13:54:09.884Z,17.90
2019-02-23T13:56:50.675Z,17.70
2019-02-23T13:59:31.501Z,17.20
2019-02-23T14:02:12.264Z,16.40
2019-02-23T14:04:52.795Z,16.20
2019-02-23T14:07:33.500Z,15.60
2019-02-23T14:10:14.071Z,15.30
2019-02-23T14:12:54.772Z,14.80
2019-02-23T14:15:35.340Z,14.90
2019-02-23T14:18:16.288Z,15.20
2019-02-23T14:20:57.088Z,15.70
2019-02-23T14:23:37.524Z,15.50
2019-02-23T14:26:18.579Z,14.90
2019-02-23T14:28:59.556Z,14.40
2019-02-23T14:31:40.389Z,14.60
2019-02-23T14:34:20.969Z,14.40
2019-02-23T14:37:01.404Z,14.40
2019-02-23T14:39:42.696Z,15.00
2019-02-23T14:45:06.001Z,14.80
2019-02-23T14:50:55.057Z,14.90
2019-02-23T14:54:02.151Z,14.90
2019-02-23T14:56:43.342Z,15.30
2019-02-23T14:59:27.148Z,15.40
2019-02-23T15:06:09.154Z,14.70
2019-02-23T15:09:17.882Z,14.20
2019-02-23T15:12:24.935Z,13.90
2019-02-23T15:15:32.218Z,13.80
2019-02-23T15:18:39.267Z,13.30
2019-02-23T15:21:47.961Z,12.90
2019-02-23T15:24:55.237Z,12.90
2019-02-23T15:28:02.327Z,12.80
2019-02-23T15:31:09.378Z,12.40
2019-02-23T15:34:16.420Z,12.20
2019-02-23T15:37:25.119Z,11.70
2019-02-23T15:40:36.505Z,11.50
2019-02-23T15:43:43.602Z,11.30
2019-02-23T15:46:50.953Z,11.10
2019-02-23T15:49:38.732Z,10.90
2019-02-23T15:52:26.688Z,10.90
2019-02-23T15:55:25.650Z,10.70
2019-02-23T15:57:57.405Z,10.50
2019-02-23T16:00:37.859Z,10.20
2019-02-23T16:03:18.375Z,10.00
2019-02-23T16:05:59.665Z,9.80
2019-02-23T16:08:40.285Z,9.80
2019-02-23T16:11:20.855Z,9.70
2019-02-23T16:14:02.116Z,9.70
2019-02-23T16:16:43.044Z,9.60
2019-02-23T16:19:23.689Z,9.60
2019-02-23T16:22:04.440Z,9.60
2019-02-23T16:24:44.916Z,9.50
2019-02-23T16:27:25.746Z,9.40
2019-02-23T16:30:06.282Z,9.30
2019-02-23T16:32:47.115Z,9.20
2019-02-23T16:35:27.617Z,9.10
2019-02-23T16:38:08.129Z,9.00
2019-02-23T16:40:50.366Z,8.90
2019-02-23T16:43:31.432Z,8.80
2019-02-23T16:46:12.027Z,8.80
2019-02-23T16:48:53.292Z,8.80
2019-02-23T16:51:34.218Z,8.80
2019-02-23T16:54:15.386Z,8.70
2019-02-23T16:56:55.844Z,8.60
2019-02-23T16:59:24.235Z,8.50
2019-02-23T17:02:12.335Z,8.40
2019-02-23T17:05:00.341Z,8.30
2019-02-23T17:07:48.501Z,8.20
2019-02-23T17:10:36.208Z,8.10
2019-02-23T17:13:23.959Z,8.00
2019-02-23T17:16:11.953Z,7.90
2019-02-23T17:18:59.995Z,7.80
2019-02-23T17:21:47.749Z,7.60
2019-02-23T17:24:35.507Z,7.60
2019-02-23T17:27:35.450Z,7.40
2019-02-23T17:30:12.675Z,7.30
2019-02-23T17:33:00.392Z,7.20
2019-02-23T17:35:48.114Z,7.00
2019-02-23T17:38:35.833Z,6.90
2019-02-23T17:41:23.819Z,6.80
2019-02-23T17:44:11.543Z,6.60
2019-02-23T17:46:59.255Z,6.50
2019-02-23T17:49:47.268Z,6.40
2019-02-23T17:52:34.979Z,6.30
2019-02-23T17:55:22.971Z,6.20
2019-02-23T17:58:04.031Z,6.10
2019-02-23T18:00:45.261Z,6.00
2019-02-23T18:03:25.775Z,5.90
2019-02-23T18:06:06.800Z,5.80
2019-02-23T18:08:47.331Z,5.70
2019-02-23T18:11:28.123Z,5.70
2019-02-23T18:14:08.320Z,5.60
2019-02-23T18:16:48.827Z,5.60
2019-02-23T18:19:29.531Z,5.60
2019-02-23T18:22:09.987Z,5.60
2019-02-23T18:24:50.723Z,5.50
2019-02-23T18:27:31.009Z,5.50
2019-02-23T18:30:14.097Z,5.50
2019-02-23T18:32:53.959Z,5.50
2019-02-23T18:35:34.368Z,5.50
2019-02-23T18:38:14.933Z,5.40
2019-02-23T18:40:55.530Z,5.40
2019-02-23T18:43:35.744Z,5.50
2019-02-23T18:46:16.290Z,5.40
2019-02-23T18:48:56.863Z,5.40
2019-02-23T18:51:37.547Z,5.40
2019-02-23T18:54:17.872Z,5.30
2019-02-23T18:56:58.575Z,5.20
2019-02-23T18:59:39.327Z,5.10
2019-02-23T19:02:19.628Z,5.10
2019-02-23T19:05:00.305Z,5.00
2019-02-23T19:07:41.340Z,5.00
2019-02-23T19:10:22.264Z,4.90
2019-02-23T19:13:03.595Z,4.90
2019-02-23T19:15:44.097Z,4.80
2019-02-23T19:18:24.800Z,4.80
2019-02-23T19:21:06.135Z,4.80
2019-02-23T19:23:46.691Z,4.80
2019-02-23T19:26:27.097Z,4.70
2019-02-23T19:29:07.387Z,4.70
2019-02-23T19:31:47.720Z,4.60
2019-02-23T19:34:28.082Z,4.60
2019-02-23T19:37:09.114Z,4.50
2019-02-23T19:39:49.700Z,4.50
2019-02-23T19:42:29.989Z,4.40
2019-02-23T19:45:10.460Z,4.40
2019-02-23T19:47:51.251Z,4.40
2019-02-23T19:50:31.379Z,4.30
2019-02-23T19:53:12.214Z,4.30
2019-02-23T19:55:52.421Z,4.20
2019-02-23T19:58:33.224Z,4.20
2019-02-23T20:01:13.848Z,4.10
2019-02-23T20:03:55.004Z,4.10
2019-02-23T20:06:35.512Z,4.00
2019-02-23T20:09:15.975Z,4.00
2019-02-23T20:11:56.672Z,4.00
2019-02-23T20:14:37.300Z,3.90
2019-02-23T20:17:18.227Z,3.90
2019-02-23T20:19:58.781Z,3.90
2019-02-23T20:22:39.619Z,3.90
2019-02-23T20:25:20.476Z,3.80
2019-02-23T20:28:01.220Z,3.70
2019-02-23T20:30:41.676Z,3.70
2019-02-23T20:33:22.433Z,3.70
2019-02-23T20:36:02.967Z,3.60
2019-02-23T20:38:43.496Z,3.50
2019-02-23T20:41:24.020Z,3.50
2019-02-23T20:44:04.447Z,3.50
2019-02-23T20:46:44.963Z,3.40
2019-02-23T20:49:25.576Z,3.40
2019-02-23T20:52:05.982Z,3.40
2019-02-23T20:54:46.391Z,3.40
2019-02-23T20:57:26.955Z,3.30
2019-02-23T21:00:07.488Z,3.30
2019-02-23T21:02:47.883Z,3.20
2019-02-23T21:05:28.648Z,3.20
2019-02-23T21:08:09.459Z,3.20
2019-02-23T21:10:50.505Z,3.20
2019-02-23T21:13:31.088Z,3.10
2019-02-23T21:16:11.445Z,3.10
2019-02-23T21:18:51.939Z,3.10
2019-02-23T21:21:32.323Z,3.10
2019-02-23T21:24:12.964Z,3.00
2019-02-23T21:26:54.280Z,3.00
2019-02-23T21:29:34.772Z,2.90
2019-02-23T21:32:16.026Z,2.90
2019-02-23T21:34:56.488Z,2.90
2019-02-23T21:37:37.020Z,2.90
2019-02-23T21:40:17.636Z,2.80
2019-02-23T21:42:58.215Z,2.70
2019-02-23T21:45:39.184Z,2.80
2019-02-23T21:48:19.308Z,2.80
2019-02-23T21:51:00.104Z,2.70
2019-02-23T21:53:40.537Z,2.70
2019-02-23T21:56:21.050Z,2.70
2019-02-23T21:59:01.511Z,2.70
2019-02-23T22:01:42.876Z,2.70
2019-02-23T22:04:23.720Z,2.70
2019-02-23T22:07:04.060Z,2.70
2019-02-23T22:09:44.251Z,2.70
2019-02-23T22:12:25.122Z,2.70
2019-02-23T22:15:05.633Z,2.70
2019-02-23T22:17:46.396Z,2.60
2019-02-23T22:20:26.591Z,2.60
2019-02-23T22:23:07.136Z,2.60
2019-02-23T22:25:48.444Z,2.50
2019-02-23T22:28:29.435Z,2.50
2019-02-23T22:31:10.200Z,2.40
2019-02-23T22:33:50.805Z,2.40
2019-02-23T22:36:31.492Z,2.30
2019-02-23T22:39:12.164Z,2.30
2019-02-23T22:41:52.984Z,2.30
2019-02-23T22:44:33.483Z,2.30
2019-02-23T22:47:14.059Z,2.30
2019-02-23T22:49:54.763Z,2.30
2019-02-23T22:52:35.496Z,2.30
2019-02-23T22:55:16.332Z,2.20
2019-02-23T22:57:56.891Z,2.30
2019-02-23T23:00:42.007Z,2.30
2019-02-23T23:03:22.431Z,2.20
2019-02-23T23:06:03.103Z,2.20
2019-02-23T23:08:43.672Z,2.20
2019-02-23T23:11:24.352Z,2.10
2019-02-23T23:14:05.043Z,2.10
2019-02-23T23:16:45.984Z,2.10
2019-02-23T23:19:26.844Z,2.10
2019-02-23T23:22:07.145Z,2.10
2019-02-23T23:24:47.923Z,2.10
2019-02-23T23:27:28.211Z,2.20
2019-02-23T23:30:08.696Z,2.20
2019-02-23T23:32:49.227Z,2.20
2019-02-23T23:35:29.784Z,2.20
2019-02-23T23:38:10.540Z,2.20
2019-02-23T23:40:50.892Z,2.30
2019-02-23T23:43:31.443Z,2.30
2019-02-23T23:46:11.983Z,2.30
2019-02-23T23:48:52.943Z,2.40
2019-02-23T23:51:33.363Z,2.40
2019-02-23T23:54:13.915Z,2.40
2019-02-23T23:56:54.415Z,2.40
2019-02-23T23:59:34.795Z,2.40
